LGSK

Skiathos Island National Airport

Skiathos, Greece
TAF LGSK 192300Z 2000/2009 04015KT 9999 SCT020
Issued Valid From Valid To
Sep-19 @ 23:00 UTC
(2 hours ago)
Sep-20 @ 00:00 UTC
(an hour ago)
Sep-20 @ 09:00 UTC
(in 8 hours)
Sep-20 @ 00:00 to Sep-20 @ 09:00
TAF LGSK 192300Z 2000/2009 04015KT 9999 SCT020
Wind Visibility Clouds
40° at 15 knots 10,000+ meters
  • Scattered at 2,000' AGL
TAF LGSK 192300Z 2000/2009 04015KT 9999 SCT020
Issued Sep-19 @ 23:00 UTC
(2 hours ago)
Valid From Sep-20 @ 00:00 UTC
(an hour ago)
Valid To Sep-20 @ 09:00 UTC
(in 8 hours)
Sep-20 @ 00:00 - Sep-20 @ 09:00
Wind Visibility
40° at 15 knots 10,000+ meters
Clouds
  • Scattered at 2,000' AGL